createdAt,value
2023-04-08T00:00:37.954Z,6.41
2023-04-08T00:04:38.193Z,6.51
2023-04-08T00:08:37.821Z,6.62
2023-04-08T00:12:38.100Z,6.90
2023-04-08T00:16:37.841Z,6.59
2023-04-08T00:20:38.577Z,7.01
2023-04-08T00:24:38.032Z,6.76
2023-04-08T00:28:38.609Z,6.84
2023-04-08T00:32:38.343Z,6.56
2023-04-08T00:36:38.619Z,7.52
2023-04-08T00:40:38.570Z,7.19
2023-04-08T00:44:39.138Z,7.77
2023-04-08T00:48:38.756Z,7.28
2023-04-08T00:52:39.083Z,7.05
2023-04-08T00:56:39.264Z,6.97
2023-04-08T01:00:39.295Z,7.17
2023-04-08T01:04:39.224Z,7.75
2023-04-08T01:08:39.644Z,8.11
2023-04-08T01:12:39.530Z,7.52
2023-04-08T01:16:39.654Z,7.27
2023-04-08T01:20:39.702Z,7.77
2023-04-08T01:24:40.203Z,8.64
2023-04-08T01:28:40.086Z,7.71
2023-04-08T01:32:40.090Z,6.60
2023-04-08T01:36:40.200Z,6.97
2023-04-08T01:40:40.337Z,8.07
2023-04-08T01:44:40.622Z,8.90
2023-04-08T01:48:40.665Z,9.34
2023-04-08T01:52:41.645Z,9.98
2023-04-08T01:56:40.946Z,10.56
2023-04-08T02:00:41.042Z,11.19
2023-04-08T02:04:41.686Z,11.09
2023-04-08T02:08:41.190Z,11.15
2023-04-08T02:12:41.644Z,10.80
2023-04-08T02:16:41.316Z,11.06
2023-04-08T02:20:41.181Z,10.80
2023-04-08T02:24:41.129Z,10.51
2023-04-08T02:28:41.154Z,10.83
2023-04-08T02:32:41.214Z,11.08
2023-04-08T02:36:40.984Z,10.86
2023-04-08T02:40:41.150Z,11.37
2023-04-08T02:44:41.046Z,11.95
2023-04-08T02:48:41.658Z,11.17
2023-04-08T02:52:41.674Z,11.59
2023-04-08T02:56:41.284Z,9.81
2023-04-08T03:00:41.586Z,10.03
2023-04-08T03:04:41.567Z,10.08
2023-04-08T03:08:42.144Z,10.61
2023-04-08T03:12:41.739Z,10.85
2023-04-08T03:16:41.746Z,11.58
2023-04-08T03:20:42.130Z,10.15
2023-04-08T03:24:41.600Z,10.29
2023-04-08T03:28:41.557Z,9.32
2023-04-08T03:32:41.692Z,9.70
2023-04-08T03:36:41.520Z,10.28
2023-04-08T03:40:41.637Z,9.91
2023-04-08T03:44:41.510Z,9.66
2023-04-08T03:48:41.471Z,11.16
2023-04-08T03:52:41.676Z,10.61
2023-04-08T03:56:41.414Z,10.84
2023-04-08T04:00:41.361Z,10.98
2023-04-08T04:04:41.341Z,10.71
2023-04-08T04:08:41.686Z,9.99
2023-04-08T04:12:41.222Z,8.69
2023-04-08T04:16:41.128Z,9.18
2023-04-08T04:20:41.177Z,8.70
2023-04-08T04:24:41.068Z,8.91
2023-04-08T04:28:41.170Z,8.67
2023-04-08T04:32:41.046Z,9.26
2023-04-08T04:36:41.015Z,9.71
2023-04-08T04:40:41.254Z,8.65
2023-04-08T04:44:40.917Z,9.27
2023-04-08T04:48:41.155Z,10.84
2023-04-08T04:52:40.861Z,9.91
2023-04-08T04:56:41.202Z,10.70
2023-04-08T05:00:41.120Z,10.17
2023-04-08T05:04:41.707Z,10.20
2023-04-08T05:08:41.334Z,9.91
2023-04-08T05:12:41.461Z,10.66
2023-04-08T05:16:41.564Z,10.29
2023-04-08T05:20:42.253Z,9.37
2023-04-08T05:24:41.955Z,9.66
2023-04-08T05:28:42.058Z,9.86
2023-04-08T05:32:42.198Z,8.83
2023-04-08T05:36:42.716Z,9.53
2023-04-08T05:40:42.341Z,9.82
2023-04-08T05:44:42.694Z,9.20
2023-04-08T05:48:42.604Z,10.37
2023-04-08T05:52:42.670Z,10.07
2023-04-08T05:56:43.182Z,9.76
2023-04-08T06:00:42.926Z,10.77
2023-04-08T06:04:43.297Z,11.47
2023-04-08T06:08:43.074Z,10.18
2023-04-08T06:12:43.220Z,9.32
2023-04-08T06:16:43.353Z,9.55
2023-04-08T06:20:43.264Z,11.15
2023-04-08T06:24:43.687Z,10.45
2023-04-08T06:28:43.255Z,11.11
2023-04-08T06:32:43.734Z,9.99
2023-04-08T06:36:43.708Z,10.52
2023-04-08T06:40:43.701Z,9.67
2023-04-08T06:44:43.690Z,9.95
2023-04-08T06:48:43.428Z,10.18
2023-04-08T06:52:43.672Z,11.21
2023-04-08T06:56:43.699Z,10.76
2023-04-08T07:00:43.294Z,11.00
2023-04-08T07:04:45.460Z,10.44
2023-04-08T07:08:43.241Z,11.24
2023-04-08T07:12:43.187Z,11.65
2023-04-08T07:16:43.219Z,12.36
2023-04-08T07:20:43.236Z,12.11
2023-04-08T07:24:43.129Z,12.41
2023-04-08T07:28:43.101Z,12.60
2023-04-08T07:32:43.046Z,12.36
2023-04-08T07:36:43.194Z,12.06
2023-04-08T07:40:42.948Z,10.63
2023-04-08T07:44:42.906Z,11.04
2023-04-08T07:48:43.246Z,11.26
2023-04-08T07:52:43.210Z,11.40
2023-04-08T07:56:43.259Z,10.53
2023-04-08T08:00:42.749Z,10.74
2023-04-08T08:04:42.828Z,10.40
2023-04-08T08:08:42.730Z,10.03
2023-04-08T08:12:42.685Z,11.32
2023-04-08T08:16:42.763Z,10.98
2023-04-08T08:20:43.241Z,8.48
2023-04-08T08:24:42.788Z,7.36
2023-04-08T08:28:42.730Z,7.20
2023-04-08T08:32:42.706Z,8.42
2023-04-08T08:36:42.720Z,7.96
2023-04-08T08:40:42.710Z,7.97
2023-04-08T08:44:42.685Z,7.36
2023-04-08T08:48:42.623Z,7.34
2023-04-08T08:52:42.751Z,7.46
2023-04-08T08:56:42.746Z,7.37
2023-04-08T09:00:42.450Z,6.75
2023-04-08T09:04:42.534Z,7.15
2023-04-08T09:08:42.742Z,7.22
2023-04-08T09:12:42.726Z,6.82
2023-04-08T09:16:42.875Z,6.88
2023-04-08T09:20:42.624Z,7.36
2023-04-08T09:24:42.746Z,6.66
2023-04-08T09:28:42.566Z,6.12
2023-04-08T09:32:42.848Z,5.82
2023-04-08T09:36:42.745Z,6.10
2023-04-08T09:40:42.443Z,6.13
2023-04-08T09:44:42.762Z,6.05
2023-04-08T09:48:42.380Z,6.21
2023-04-08T09:52:42.739Z,6.93
2023-04-08T09:56:42.743Z,6.15
2023-04-08T10:00:42.311Z,6.00
2023-04-08T10:04:42.279Z,6.70
2023-04-08T10:08:42.282Z,7.10
2023-04-08T10:12:42.174Z,6.47
2023-04-08T10:16:42.284Z,6.58
2023-04-08T10:20:42.305Z,6.92
2023-04-08T10:24:42.737Z,6.88
2023-04-08T10:28:42.445Z,6.97
2023-04-08T10:32:42.767Z,6.86
2023-04-08T10:36:42.672Z,6.22
2023-04-08T10:40:42.721Z,7.23
2023-04-08T10:44:42.837Z,5.61
2023-04-08T10:48:42.820Z,5.93
2023-04-08T10:52:43.287Z,6.40
2023-04-08T10:56:42.908Z,5.42
2023-04-08T11:00:42.968Z,3.48
2023-04-08T11:04:43.814Z,3.32
2023-04-08T11:08:43.166Z,2.04
2023-04-08T11:12:43.263Z,2.01
2023-04-08T11:16:43.354Z,2.48
2023-04-08T11:20:43.755Z,2.69
2023-04-08T11:24:43.457Z,2.50
2023-04-08T11:28:43.789Z,2.02
2023-04-08T11:32:43.578Z,2.96
2023-04-08T11:36:43.634Z,1.70
2023-04-08T11:40:43.658Z,2.06
2023-04-08T11:44:43.778Z,1.46
2023-04-08T11:48:43.769Z,1.84
2023-04-08T11:52:43.819Z,1.74
2023-04-08T11:56:43.905Z,1.81
2023-04-08T12:00:43.837Z,1.67
2023-04-08T12:04:44.054Z,2.11
2023-04-08T12:08:44.340Z,1.59
2023-04-08T12:12:44.310Z,1.36
2023-04-08T12:16:44.069Z,2.01
2023-04-08T12:20:44.289Z,4.16
2023-04-08T12:24:44.269Z,5.90
2023-04-08T12:28:44.398Z,6.37
2023-04-08T12:32:44.868Z,6.88
2023-04-08T12:36:44.634Z,6.11
2023-04-08T12:40:44.720Z,6.57
2023-04-08T12:44:45.318Z,5.78
2023-04-08T12:48:45.052Z,5.65
2023-04-08T12:52:45.278Z,5.08
2023-04-08T12:56:45.274Z,5.62
2023-04-08T13:00:55.835Z,5.21
2023-04-08T13:04:45.335Z,5.07
2023-04-08T13:08:45.290Z,4.89
2023-04-08T13:12:45.164Z,4.44
2023-04-08T13:16:45.339Z,5.09
2023-04-08T13:20:45.825Z,4.28
2023-04-08T13:24:45.619Z,4.31
2023-04-08T13:28:56.743Z,4.74
2023-04-08T13:32:47.076Z,4.37
2023-04-08T13:36:46.167Z,4.08
2023-04-08T13:40:48.166Z,3.72
2023-04-08T13:44:46.359Z,3.79
2023-04-08T13:48:46.478Z,3.38
2023-04-08T13:52:46.087Z,3.41
2023-04-08T13:56:46.341Z,3.14
2023-04-08T14:00:46.019Z,3.11
2023-04-08T14:04:46.555Z,3.43
2023-04-08T14:08:46.331Z,3.37
2023-04-08T14:12:45.895Z,3.67
2023-04-08T14:16:46.495Z,3.03
2023-04-08T14:20:45.944Z,3.44
2023-04-08T14:24:45.815Z,3.50
2023-04-08T14:28:46.342Z,3.14
2023-04-08T14:32:46.264Z,3.75
2023-04-08T14:36:46.852Z,3.51
2023-04-08T14:40:46.631Z,4.13
2023-04-08T14:44:46.858Z,3.58
2023-04-08T14:48:46.566Z,4.27
2023-04-08T14:52:46.549Z,3.82
2023-04-08T14:56:46.823Z,4.55
2023-04-08T15:00:46.431Z,4.16
2023-04-08T15:04:46.972Z,4.28
2023-04-08T15:08:46.480Z,4.72
2023-04-08T15:12:46.835Z,4.66
2023-04-08T15:16:46.362Z,4.92
2023-04-08T15:20:46.809Z,4.91
2023-04-08T15:24:47.993Z,4.75
2023-04-08T15:28:46.665Z,4.13
2023-04-08T15:32:46.885Z,5.14
2023-04-08T15:36:46.869Z,3.65
2023-04-08T15:40:48.453Z,4.62
2023-04-08T15:44:47.363Z,4.70
2023-04-08T15:48:46.942Z,4.40
2023-04-08T15:52:47.358Z,5.74
2023-04-08T15:56:46.959Z,5.20
2023-04-08T16:00:47.356Z,5.45
2023-04-08T16:04:47.179Z,5.25
2023-04-08T16:08:47.127Z,6.27
2023-04-08T16:12:47.218Z,4.46
2023-04-08T16:16:47.165Z,4.72
2023-04-08T16:20:47.215Z,5.00
2023-04-08T16:24:47.389Z,4.99
2023-04-08T16:28:47.225Z,6.60
2023-04-08T16:32:47.413Z,7.31
2023-04-08T16:36:47.286Z,6.58
2023-04-08T16:40:47.335Z,7.96
2023-04-08T16:44:47.476Z,6.67
2023-04-08T16:48:47.576Z,6.15
2023-04-08T16:52:47.920Z,6.34
2023-04-08T16:56:47.595Z,6.26
2023-04-08T17:00:47.963Z,6.10
2023-04-08T17:04:47.751Z,6.50
2023-04-08T17:08:47.908Z,6.55
2023-04-08T17:12:47.955Z,6.78
2023-04-08T17:16:48.511Z,7.26
2023-04-08T17:20:48.346Z,7.79
2023-04-08T17:24:48.449Z,6.45
2023-04-08T17:28:48.632Z,7.84
2023-04-08T17:32:48.871Z,8.91
2023-04-08T17:36:49.024Z,9.66
2023-04-08T17:40:49.404Z,9.68
2023-04-08T17:44:48.908Z,9.72
2023-04-08T17:48:48.912Z,9.92
2023-04-08T17:52:49.468Z,9.60
2023-04-08T17:56:49.624Z,10.58
2023-04-08T18:00:48.895Z,11.12
2023-04-08T18:04:48.730Z,9.70
2023-04-08T18:08:48.915Z,11.99
2023-04-08T18:12:50.628Z,11.54
2023-04-08T18:16:48.724Z,12.43
2023-04-08T18:20:48.621Z,12.96
2023-04-08T18:24:48.566Z,12.49
2023-04-08T18:28:48.944Z,13.26
2023-04-08T18:32:48.929Z,13.77
2023-04-08T18:36:48.470Z,14.55
2023-04-08T18:40:48.936Z,14.64
2023-04-08T18:44:48.376Z,15.06
2023-04-08T18:48:48.366Z,14.26
2023-04-08T18:52:49.039Z,14.28
2023-04-08T18:56:48.429Z,14.97
2023-04-08T19:00:48.256Z,14.25
2023-04-08T19:04:48.405Z,14.60
2023-04-08T19:08:48.475Z,14.41
2023-04-08T19:12:48.454Z,14.31
2023-04-08T19:16:48.920Z,13.24
2023-04-08T19:20:48.826Z,12.98
2023-04-08T19:24:48.801Z,13.37
2023-04-08T19:28:48.939Z,14.84
2023-04-08T19:32:48.769Z,14.55
2023-04-08T19:36:48.939Z,13.60
2023-04-08T19:40:48.633Z,14.28
2023-04-08T19:44:48.941Z,13.35
2023-04-08T19:48:48.916Z,13.26
2023-04-08T19:52:48.516Z,13.16
2023-04-08T19:56:48.492Z,12.41
2023-04-08T20:00:48.551Z,11.15
2023-04-08T20:04:48.690Z,10.70
2023-04-08T20:08:48.777Z,11.59
2023-04-08T20:12:48.666Z,9.99
2023-04-08T20:16:48.954Z,10.93
2023-04-08T20:20:48.787Z,10.14
2023-04-08T20:24:48.750Z,10.32
2023-04-08T20:28:48.759Z,10.98
2023-04-08T20:32:48.880Z,10.34
2023-04-08T20:36:48.818Z,9.72
2023-04-08T20:40:48.974Z,9.57
2023-04-08T20:44:48.926Z,10.11
2023-04-08T20:48:49.033Z,9.73
2023-04-08T20:52:48.875Z,9.21
2023-04-08T20:56:48.884Z,8.96
2023-04-08T21:00:49.528Z,9.55
2023-04-08T21:04:49.022Z,9.71
2023-04-08T21:08:49.284Z,9.32
2023-04-08T21:12:49.436Z,7.64
2023-04-08T21:16:49.239Z,8.28
2023-04-08T21:20:49.471Z,8.72
2023-04-08T21:24:49.214Z,8.04
2023-04-08T21:28:49.813Z,8.10
2023-04-08T21:32:49.326Z,9.21
2023-04-08T21:36:49.341Z,8.56
2023-04-08T21:40:49.413Z,8.73
2023-04-08T21:44:49.948Z,8.61
2023-04-08T21:48:49.944Z,8.54
2023-04-08T21:52:49.949Z,8.45
2023-04-08T21:56:49.621Z,9.06
2023-04-08T22:00:49.666Z,9.01
2023-04-08T22:04:49.997Z,8.58
2023-04-08T22:08:49.895Z,8.91
2023-04-08T22:12:49.838Z,8.22
2023-04-08T22:16:50.058Z,9.01
2023-04-08T22:20:50.000Z,10.22
2023-04-08T22:24:50.487Z,9.37
2023-04-08T22:28:50.341Z,9.87
2023-04-08T22:32:50.134Z,10.16
2023-04-08T22:36:50.454Z,11.04
2023-04-08T22:40:50.478Z,9.90
2023-04-08T22:44:50.471Z,10.44
2023-04-08T22:48:50.915Z,11.14
2023-04-08T22:52:50.381Z,10.68
2023-04-08T22:56:50.508Z,9.76
2023-04-08T23:00:50.532Z,11.32
2023-04-08T23:04:50.967Z,10.80
2023-04-08T23:08:51.062Z,10.88
2023-04-08T23:12:50.821Z,12.24
2023-04-08T23:16:50.998Z,11.59
2023-04-08T23:20:51.453Z,12.75
2023-04-08T23:24:51.175Z,12.35
2023-04-08T23:28:51.795Z,12.72
2023-04-08T23:32:51.495Z,11.10
2023-04-08T23:36:52.001Z,11.66
2023-04-08T23:40:52.043Z,12.01
2023-04-08T23:44:51.859Z,13.55
2023-04-08T23:48:52.279Z,12.66
2023-04-08T23:52:52.113Z,12.43
2023-04-08T23:56:53.530Z,14.10
